createdAt,value
2022-10-18T00:00:04.457Z,16.68
2022-10-18T00:02:38.034Z,16.64
2022-10-18T00:05:12.760Z,16.71
2022-10-18T00:07:46.429Z,16.57
2022-10-18T00:10:24.994Z,16.50
2022-10-18T00:12:58.790Z,16.45
2022-10-18T00:15:32.067Z,16.53
2022-10-18T00:18:05.710Z,16.39
2022-10-18T00:20:40.328Z,16.45
2022-10-18T00:23:14.133Z,16.29
2022-10-18T00:25:47.673Z,16.23
2022-10-18T00:28:20.935Z,16.31
2022-10-18T00:30:54.610Z,16.17
2022-10-18T00:33:27.836Z,16.24
2022-10-18T00:36:03.454Z,16.06
2022-10-18T00:38:37.455Z,16.00
2022-10-18T00:41:13.303Z,15.94
2022-10-18T00:43:57.476Z,15.90
2022-10-18T00:46:33.492Z,15.99
2022-10-18T00:49:13.229Z,15.87
2022-10-18T00:51:51.647Z,15.84
2022-10-18T00:54:26.164Z,15.79
2022-10-18T00:57:00.237Z,15.77
2022-10-18T00:59:34.416Z,15.76
2022-10-18T01:02:08.440Z,15.76
2022-10-18T01:04:42.073Z,15.77
2022-10-18T01:07:22.004Z,15.91
2022-10-18T01:10:01.555Z,15.82
2022-10-18T01:12:46.411Z,15.83
2022-10-18T01:15:27.600Z,15.83
2022-10-18T01:18:09.441Z,15.82
2022-10-18T01:21:10.547Z,15.88
2022-10-18T01:24:19.709Z,15.90
2022-10-18T01:27:16.119Z,15.87
2022-10-18T01:30:05.337Z,15.85
2022-10-18T01:32:44.206Z,15.83
2022-10-18T01:35:23.334Z,15.79
2022-10-18T01:38:00.867Z,15.78
2022-10-18T01:40:36.645Z,15.76
2022-10-18T01:43:12.135Z,15.75
2022-10-18T01:45:45.913Z,15.75
2022-10-18T01:48:21.539Z,15.74
2022-10-18T01:50:55.370Z,15.73
2022-10-18T01:53:31.659Z,15.72
2022-10-18T01:56:34.040Z,15.75
2022-10-18T01:59:25.165Z,15.72
2022-10-18T02:02:11.063Z,15.70
2022-10-18T02:04:52.407Z,15.69
2022-10-18T02:07:32.960Z,15.70
2022-10-18T02:10:12.236Z,15.71
2022-10-18T02:12:48.164Z,15.71
2022-10-18T02:15:28.205Z,15.73
2022-10-18T02:18:04.909Z,15.73
2022-10-18T02:20:40.561Z,15.74
2022-10-18T02:23:16.587Z,15.73
2022-10-18T02:25:50.544Z,15.74
2022-10-18T02:31:08.471Z,15.74
2022-10-18T02:33:52.906Z,15.74
2022-10-18T02:36:33.073Z,15.72
2022-10-18T02:39:14.540Z,15.73
2022-10-18T02:41:48.799Z,15.72
2022-10-18T02:44:22.663Z,15.69
2022-10-18T02:46:56.875Z,15.68
2022-10-18T02:49:30.561Z,15.66
2022-10-18T02:52:05.987Z,15.64
2022-10-18T02:54:39.682Z,15.64
2022-10-18T02:57:12.965Z,15.74
2022-10-18T02:59:46.635Z,15.64
2022-10-18T03:02:19.997Z,15.74
2022-10-18T03:04:53.551Z,15.59
2022-10-18T03:07:28.951Z,15.53
2022-10-18T03:10:02.720Z,15.51
2022-10-18T03:12:36.012Z,15.63
2022-10-18T03:15:10.242Z,15.50
2022-10-18T03:17:44.252Z,15.46
2022-10-18T03:20:18.067Z,15.43
2022-10-18T03:22:52.817Z,15.54
2022-10-18T03:25:26.642Z,15.40
2022-10-18T03:28:00.402Z,15.36
2022-10-18T03:30:33.626Z,15.48
2022-10-18T03:33:07.396Z,15.34
2022-10-18T03:35:40.721Z,15.45
2022-10-18T03:38:15.828Z,15.32
2022-10-18T03:40:49.463Z,15.29
2022-10-18T03:43:22.994Z,15.39
2022-10-18T03:45:57.050Z,15.26
2022-10-18T03:48:30.861Z,15.22
2022-10-18T03:51:04.532Z,15.19
2022-10-18T03:53:39.639Z,15.18
2022-10-18T03:56:13.256Z,15.17
2022-10-18T03:58:46.557Z,15.28
2022-10-18T04:01:20.196Z,15.14
2022-10-18T04:03:55.412Z,15.11
2022-10-18T04:06:29.108Z,15.09
2022-10-18T04:09:06.513Z,15.20
2022-10-18T04:11:43.152Z,15.08
2022-10-18T04:14:16.728Z,15.05
2022-10-18T04:16:50.302Z,15.02
2022-10-18T04:19:23.634Z,15.14
2022-10-18T04:21:57.294Z,15.02
2022-10-18T04:24:32.018Z,15.12
2022-10-18T04:27:06.170Z,14.99
2022-10-18T04:29:39.910Z,14.95
2022-10-18T04:32:13.576Z,14.92
2022-10-18T04:34:46.896Z,15.02
2022-10-18T04:37:20.479Z,14.91
2022-10-18T04:39:55.495Z,14.88
2022-10-18T04:42:29.233Z,14.85
2022-10-18T04:45:02.515Z,14.95
2022-10-18T04:47:36.276Z,14.82
2022-10-18T04:50:10.017Z,14.90
2022-10-18T04:52:43.727Z,14.76
2022-10-18T04:55:18.885Z,14.71
2022-10-18T04:57:52.466Z,14.68
2022-10-18T05:00:26.117Z,14.69
2022-10-18T05:02:59.375Z,14.82
2022-10-18T05:05:49.924Z,14.69
2022-10-18T05:08:26.610Z,14.68
2022-10-18T05:11:02.134Z,14.66
2022-10-18T05:13:35.787Z,14.67
2022-10-18T05:16:09.114Z,14.81
2022-10-18T05:18:43.242Z,14.70
2022-10-18T05:21:17.917Z,14.68
2022-10-18T05:23:51.508Z,14.67
2022-10-18T05:26:26.592Z,14.68
2022-10-18T05:29:00.354Z,14.71
2022-10-18T05:31:34.134Z,14.73
2022-10-18T05:34:07.410Z,14.88
2022-10-18T05:36:41.076Z,14.79
2022-10-18T05:39:14.337Z,14.94
2022-10-18T05:41:49.372Z,14.84
2022-10-18T05:44:23.205Z,14.84
2022-10-18T05:46:56.481Z,14.98
2022-10-18T05:49:30.029Z,14.91
2022-10-18T05:52:03.702Z,14.91
2022-10-18T05:54:36.984Z,15.08
2022-10-18T05:57:12.187Z,15.03
2022-10-18T05:59:48.380Z,15.08
2022-10-18T06:02:33.020Z,15.16
2022-10-18T06:05:07.118Z,15.20
2022-10-18T06:07:43.206Z,15.29
2022-10-18T06:10:17.083Z,15.39
2022-10-18T06:12:55.117Z,15.47
2022-10-18T06:15:28.827Z,15.58
2022-10-18T06:18:02.454Z,15.67
2022-10-18T06:20:35.810Z,15.88
2022-10-18T06:23:09.643Z,15.88
2022-10-18T06:25:43.277Z,15.94
2022-10-18T06:28:17.999Z,16.13
2022-10-18T06:30:51.661Z,16.09
2022-10-18T06:33:25.116Z,16.29
2022-10-18T06:36:00.576Z,16.22
2022-10-18T06:38:34.917Z,16.26
2022-10-18T06:41:09.911Z,16.31
2022-10-18T06:43:45.112Z,16.39
2022-10-18T06:46:18.769Z,16.48
2022-10-18T06:48:52.398Z,16.55
2022-10-18T06:51:25.833Z,16.76
2022-10-18T06:54:16.841Z,16.73
2022-10-18T06:56:51.845Z,16.81
2022-10-18T06:59:28.982Z,17.03
2022-10-18T07:02:07.241Z,17.01
2022-10-18T07:04:45.667Z,17.10
2022-10-18T07:07:22.687Z,17.23
2022-10-18T07:09:58.565Z,17.36
2022-10-18T07:12:32.346Z,17.59
2022-10-18T07:15:09.790Z,17.60
2022-10-18T07:17:45.346Z,17.73
2022-10-18T07:20:19.065Z,17.90
2022-10-18T07:22:56.971Z,18.13
2022-10-18T07:25:30.695Z,18.43
2022-10-18T07:28:04.419Z,18.70
2022-10-18T07:30:39.914Z,19.05
2022-10-18T07:33:14.948Z,19.51
2022-10-18T07:35:48.537Z,19.96
2022-10-18T07:38:22.943Z,20.34
2022-10-18T07:40:58.713Z,20.89
2022-10-18T07:43:32.495Z,21.45
2022-10-18T07:46:07.772Z,22.00
2022-10-18T07:48:41.665Z,22.56
2022-10-18T07:51:15.857Z,23.00
2022-10-18T07:53:49.829Z,23.30
2022-10-18T07:56:23.521Z,23.51
2022-10-18T07:58:58.447Z,23.68
2022-10-18T08:01:36.178Z,23.79
2022-10-18T08:04:13.979Z,23.76
2022-10-18T08:06:49.842Z,23.58
2022-10-18T08:09:23.445Z,23.24
2022-10-18T08:12:00.073Z,23.06
2022-10-18T08:14:33.801Z,23.17
2022-10-18T08:17:08.883Z,23.38
2022-10-18T08:19:52.903Z,23.74
2022-10-18T08:22:37.949Z,24.43
2022-10-18T08:25:11.732Z,25.17
2022-10-18T08:27:45.406Z,25.97
2022-10-18T08:30:19.187Z,26.71
2022-10-18T08:32:54.498Z,27.49
2022-10-18T08:35:28.086Z,28.30
2022-10-18T08:38:01.788Z,28.92
2022-10-18T08:40:36.031Z,29.24
2022-10-18T08:43:21.598Z,29.60
2022-10-18T08:46:03.974Z,29.88
2022-10-18T08:48:43.630Z,30.08
2022-10-18T08:51:23.418Z,30.11
2022-10-18T08:54:04.551Z,30.36
2022-10-18T08:56:40.103Z,30.75
2022-10-18T08:59:14.809Z,31.53
2022-10-18T09:02:01.086Z,32.21
2022-10-18T09:04:48.541Z,32.74
2022-10-18T09:07:39.648Z,33.13
2022-10-18T09:10:21.663Z,33.29
2022-10-18T09:13:15.714Z,33.15
2022-10-18T09:15:53.491Z,32.59
2022-10-18T09:18:47.527Z,31.67
2022-10-18T09:21:28.118Z,30.78
2022-10-18T09:24:13.187Z,30.21
2022-10-18T09:26:48.677Z,29.85
2022-10-18T09:29:41.871Z,29.74
2022-10-18T09:32:28.877Z,29.83
2022-10-18T09:35:13.439Z,30.20
2022-10-18T09:37:49.889Z,30.67
2022-10-18T09:40:28.572Z,31.49
2022-10-18T09:43:07.756Z,32.33
2022-10-18T09:45:44.451Z,33.25
2022-10-18T09:48:23.706Z,34.14
2022-10-18T09:51:02.182Z,34.84
2022-10-18T09:53:44.562Z,35.43
2022-10-18T09:56:24.015Z,35.90
2022-10-18T09:58:57.699Z,36.08
2022-10-18T10:01:33.490Z,36.21
2022-10-18T10:04:07.010Z,36.44
2022-10-18T10:06:51.470Z,36.87
2022-10-18T10:09:29.794Z,37.26
2022-10-18T10:12:03.335Z,37.46
2022-10-18T10:14:45.545Z,37.50
2022-10-18T10:17:25.241Z,37.71
2022-10-18T10:20:03.926Z,38.15
2022-10-18T10:22:40.249Z,38.47
2022-10-18T10:25:24.923Z,38.78
2022-10-18T10:28:04.470Z,39.11
2022-10-18T10:30:39.799Z,39.40
2022-10-18T10:33:34.813Z,39.59
2022-10-18T10:36:19.396Z,39.20
2022-10-18T10:39:06.418Z,38.80
2022-10-18T10:41:42.824Z,38.47
2022-10-18T10:44:20.471Z,38.09
2022-10-18T10:46:55.070Z,37.55
2022-10-18T10:49:43.950Z,37.39
2022-10-18T10:52:28.366Z,37.75
2022-10-18T10:55:23.540Z,37.65
2022-10-18T10:57:58.913Z,37.72
2022-10-18T11:00:46.940Z,37.59
2022-10-18T11:03:28.917Z,37.08
2022-10-18T11:06:04.797Z,36.22
2022-10-18T11:08:43.757Z,35.25
2022-10-18T11:11:28.078Z,34.76
2022-10-18T11:14:27.134Z,34.06
2022-10-18T11:17:14.805Z,34.42
2022-10-18T11:20:03.847Z,35.13
2022-10-18T11:22:44.546Z,35.77
2022-10-18T11:25:24.443Z,36.50
2022-10-18T11:28:05.963Z,37.08
2022-10-18T11:30:56.674Z,37.63
2022-10-18T11:34:07.091Z,37.92
2022-10-18T11:36:45.488Z,38.03
2022-10-18T11:39:37.634Z,37.87
2022-10-18T11:42:20.948Z,37.61
2022-10-18T11:45:13.561Z,37.49
2022-10-18T11:47:56.035Z,37.52
2022-10-18T11:50:37.025Z,37.70
2022-10-18T11:53:20.214Z,37.73
2022-10-18T11:56:06.708Z,37.93
2022-10-18T11:58:54.778Z,37.75
2022-10-18T12:01:36.995Z,37.71
2022-10-18T12:04:24.862Z,37.78
2022-10-18T12:07:04.168Z,37.74
2022-10-18T12:09:41.308Z,37.42
2022-10-18T12:12:19.527Z,37.24
2022-10-18T12:14:59.026Z,37.09
2022-10-18T12:17:46.121Z,37.07
2022-10-18T12:20:36.685Z,36.75
2022-10-18T12:23:15.956Z,36.29
2022-10-18T12:25:53.996Z,35.62
2022-10-18T12:28:35.486Z,34.83
2022-10-18T12:31:20.373Z,33.86
2022-10-18T12:33:58.648Z,32.93
2022-10-18T12:36:58.727Z,32.17
2022-10-18T12:39:45.146Z,31.42
2022-10-18T12:42:37.399Z,30.77
2022-10-18T12:45:26.745Z,30.35
2022-10-18T12:48:06.907Z,29.80
2022-10-18T12:50:47.326Z,29.30
2022-10-18T12:53:30.105Z,28.84
2022-10-18T12:56:38.323Z,28.46
2022-10-18T12:59:51.460Z,28.07
2022-10-18T13:02:37.286Z,27.80
2022-10-18T13:05:52.923Z,27.70
2022-10-18T13:08:43.739Z,27.51
2022-10-18T13:11:36.962Z,27.25
2022-10-18T13:15:13.446Z,27.12
2022-10-18T13:17:57.973Z,26.89
2022-10-18T13:20:45.809Z,26.74
2022-10-18T13:23:39.177Z,26.56
2022-10-18T13:26:26.780Z,26.41
2022-10-18T13:29:07.419Z,26.38
2022-10-18T13:31:45.837Z,26.32
2022-10-18T13:34:33.274Z,26.39
2022-10-18T13:37:20.154Z,26.40
2022-10-18T13:40:24.877Z,26.32
2022-10-18T13:43:29.759Z,26.17
2022-10-18T13:46:07.370Z,26.03
2022-10-18T13:48:49.740Z,25.89
2022-10-18T13:51:59.525Z,25.76
2022-10-18T13:55:05.789Z,25.60
2022-10-18T13:57:59.336Z,25.42
2022-10-18T14:00:49.148Z,25.34
2022-10-18T14:04:02.639Z,25.09
2022-10-18T14:06:41.421Z,24.83
2022-10-18T14:09:25.924Z,24.61
2022-10-18T14:12:24.365Z,24.40
2022-10-18T14:15:08.234Z,24.21
2022-10-18T14:17:48.400Z,24.01
2022-10-18T14:20:32.726Z,23.83
2022-10-18T14:23:17.139Z,23.67
2022-10-18T14:25:50.675Z,23.55
2022-10-18T14:28:36.154Z,23.43
2022-10-18T14:31:14.970Z,23.29
2022-10-18T14:33:57.569Z,23.14
2022-10-18T14:36:42.617Z,23.02
2022-10-18T14:39:22.374Z,22.91
2022-10-18T14:41:57.410Z,22.76
2022-10-18T14:44:33.160Z,22.64
2022-10-18T14:47:17.736Z,22.58
2022-10-18T14:49:58.252Z,22.48
2022-10-18T14:52:35.819Z,22.40
2022-10-18T14:55:19.652Z,22.33
2022-10-18T14:57:55.558Z,22.25
2022-10-18T15:00:36.531Z,22.19
2022-10-18T15:03:15.521Z,22.12
2022-10-18T15:05:59.645Z,22.04
2022-10-18T15:08:38.073Z,21.97
2022-10-18T15:11:14.985Z,21.92
2022-10-18T15:13:53.624Z,21.86
2022-10-18T15:16:30.449Z,21.80
2022-10-18T15:19:07.359Z,21.72
2022-10-18T15:22:07.981Z,21.69
2022-10-18T15:25:04.430Z,21.59
2022-10-18T15:30:27.664Z,21.40
2022-10-18T15:33:03.065Z,21.11
2022-10-18T15:35:38.454Z,20.78
2022-10-18T15:38:18.701Z,20.48
2022-10-18T15:40:52.554Z,20.22
2022-10-18T15:43:39.487Z,19.96
2022-10-18T15:46:32.256Z,19.67
2022-10-18T15:49:19.266Z,19.38
2022-10-18T15:52:17.253Z,19.17
2022-10-18T15:54:52.159Z,18.94
2022-10-18T15:57:29.078Z,18.79
2022-10-18T16:00:19.737Z,18.65
2022-10-18T16:02:53.309Z,18.50
2022-10-18T16:05:27.360Z,18.47
2022-10-18T16:08:00.475Z,18.38
2022-10-18T16:10:35.572Z,18.15
2022-10-18T16:13:09.062Z,18.05
2022-10-18T16:15:42.261Z,18.08
2022-10-18T16:18:18.264Z,17.93
2022-10-18T16:20:51.887Z,17.88
2022-10-18T16:23:28.771Z,17.84
2022-10-18T16:26:03.941Z,17.82
2022-10-18T16:28:40.216Z,17.79
2022-10-18T16:31:17.756Z,17.74
2022-10-18T16:33:52.838Z,17.70
2022-10-18T16:36:29.225Z,17.66
2022-10-18T16:39:07.892Z,17.61
2022-10-18T16:41:42.964Z,17.57
2022-10-18T16:44:17.361Z,17.54
2022-10-18T16:46:53.961Z,17.54
2022-10-18T16:49:29.121Z,17.54
2022-10-18T16:52:04.699Z,17.54
2022-10-18T16:54:38.479Z,17.53
2022-10-18T16:57:13.888Z,17.52
2022-10-18T16:59:47.620Z,17.51
2022-10-18T17:02:21.249Z,17.48
2022-10-18T17:04:54.965Z,17.42
2022-10-18T17:07:28.450Z,17.35
2022-10-18T17:10:01.795Z,17.40
2022-10-18T17:12:36.915Z,17.26
2022-10-18T17:15:11.604Z,17.19
2022-10-18T17:17:46.178Z,17.11
2022-10-18T17:20:23.702Z,17.05
2022-10-18T17:22:57.400Z,16.97
2022-10-18T17:28:31.311Z,16.81
2022-10-18T17:31:08.240Z,16.75
2022-10-18T17:33:42.213Z,16.70
2022-10-18T17:36:17.053Z,16.65
2022-10-18T17:38:53.792Z,16.63
2022-10-18T17:41:28.941Z,16.63
2022-10-18T17:44:07.317Z,16.62
2022-10-18T17:46:42.392Z,16.62
2022-10-18T17:49:17.064Z,16.63
2022-10-18T17:51:50.657Z,16.62
2022-10-18T17:54:24.079Z,16.73
2022-10-18T17:57:02.679Z,16.66
2022-10-18T17:59:40.946Z,16.63
2022-10-18T18:02:14.605Z,16.62
2022-10-18T18:04:51.114Z,16.57
2022-10-18T18:07:24.813Z,16.58
2022-10-18T18:09:58.478Z,16.57
2022-10-18T18:12:32.106Z,16.66
2022-10-18T18:15:09.704Z,16.59
2022-10-18T18:17:56.607Z,16.56
2022-10-18T18:20:31.262Z,16.56
2022-10-18T18:23:04.914Z,16.56
2022-10-18T18:25:38.176Z,16.67
2022-10-18T18:28:11.734Z,16.59
2022-10-18T18:30:46.775Z,16.56
2022-10-18T18:33:20.311Z,16.53
2022-10-18T18:35:57.504Z,16.64
2022-10-18T18:38:31.077Z,16.53
2022-10-18T18:41:08.104Z,16.62
2022-10-18T18:43:43.191Z,16.48
2022-10-18T18:46:18.338Z,16.43
2022-10-18T18:48:53.702Z,16.41
2022-10-18T18:51:30.153Z,16.40
2022-10-18T18:54:04.111Z,16.40
2022-10-18T18:56:38.300Z,16.42
2022-10-18T18:59:14.298Z,16.43
2022-10-18T19:01:49.427Z,16.43
2022-10-18T19:04:23.050Z,16.44
2022-10-18T19:06:56.324Z,16.55
2022-10-18T19:09:30.030Z,16.42
2022-10-18T19:12:03.699Z,16.38
2022-10-18T19:14:36.978Z,16.49
2022-10-18T19:17:12.055Z,16.39
2022-10-18T19:19:45.760Z,16.36
2022-10-18T19:22:19.397Z,16.35
2022-10-18T19:24:53.008Z,16.34
2022-10-18T19:27:26.369Z,16.45
2022-10-18T19:29:59.973Z,16.34
2022-10-18T19:32:37.355Z,16.44
2022-10-18T19:35:11.102Z,16.30
2022-10-18T19:37:44.721Z,16.26
2022-10-18T19:40:18.097Z,16.34
2022-10-18T19:42:51.653Z,16.22
2022-10-18T19:45:27.585Z,16.29
2022-10-18T19:48:02.821Z,16.13
2022-10-18T19:50:36.914Z,16.06
2022-10-18T19:53:10.613Z,16.01
2022-10-18T19:55:44.234Z,15.96
2022-10-18T19:58:17.474Z,16.04
2022-10-18T20:00:54.115Z,15.91
2022-10-18T20:03:30.645Z,15.89
2022-10-18T20:06:05.189Z,15.84
2022-10-18T20:08:39.970Z,15.76
2022-10-18T20:11:15.817Z,15.72
2022-10-18T20:13:50.342Z,15.69
2022-10-18T20:16:28.448Z,15.68
2022-10-18T20:19:08.944Z,15.62
2022-10-18T20:21:44.782Z,15.54
2022-10-18T20:24:18.858Z,15.44
2022-10-18T20:29:31.824Z,15.35
2022-10-18T20:32:12.558Z,15.34
2022-10-18T20:34:50.502Z,15.33
2022-10-18T20:37:26.454Z,15.34
2022-10-18T20:40:00.375Z,15.47
2022-10-18T20:42:34.169Z,15.37
2022-10-18T20:45:08.910Z,15.36
2022-10-18T20:47:44.209Z,15.36
2022-10-18T20:50:21.931Z,15.36
2022-10-18T20:52:55.650Z,15.37
2022-10-18T20:55:30.622Z,15.35
2022-10-18T20:58:10.287Z,15.34
2022-10-18T21:00:46.845Z,15.35
2022-10-18T21:03:20.625Z,15.34
2022-10-18T21:05:55.669Z,15.33
2022-10-18T21:08:32.221Z,15.37
2022-10-18T21:11:07.090Z,15.39
2022-10-18T21:13:42.111Z,15.42
2022-10-18T21:16:15.709Z,15.44
2022-10-18T21:18:49.012Z,15.56
2022-10-18T21:21:26.186Z,15.46
2022-10-18T21:24:06.885Z,15.42
2022-10-18T21:26:41.973Z,15.41
2022-10-18T21:29:21.662Z,15.38
2022-10-18T21:31:59.420Z,15.37
2022-10-18T21:34:33.209Z,15.36
2022-10-18T21:37:08.266Z,15.33
2022-10-18T21:39:44.697Z,15.30
2022-10-18T21:42:18.462Z,15.30
2022-10-18T21:44:52.125Z,15.26
2022-10-18T21:47:25.978Z,15.36
2022-10-18T21:49:59.760Z,15.25
2022-10-18T21:52:34.801Z,15.31
2022-10-18T21:55:09.522Z,15.16
2022-10-18T21:57:43.226Z,15.13
2022-10-18T22:00:17.062Z,15.21
2022-10-18T22:02:50.642Z,15.11
2022-10-18T22:05:27.338Z,15.10
2022-10-18T22:08:05.615Z,15.07
2022-10-18T22:10:39.383Z,15.05
2022-10-18T22:13:12.686Z,15.15
2022-10-18T22:15:48.894Z,15.03
2022-10-18T22:18:22.982Z,15.00
2022-10-18T22:20:56.565Z,14.97
2022-10-18T22:23:35.175Z,14.96
2022-10-18T22:26:11.412Z,14.93
2022-10-18T22:28:50.535Z,14.93
2022-10-18T22:31:28.563Z,14.93
2022-10-18T22:34:04.449Z,14.94
2022-10-18T22:36:38.461Z,14.96
2022-10-18T22:39:19.110Z,14.96
2022-10-18T22:41:56.823Z,14.97
2022-10-18T22:44:34.547Z,14.97
2022-10-18T22:47:08.333Z,14.97
2022-10-18T22:49:41.637Z,15.05
2022-10-18T22:52:18.082Z,14.92
2022-10-18T22:54:56.134Z,14.87
2022-10-18T22:57:30.758Z,14.81
2022-10-18T23:00:05.495Z,14.73
2022-10-18T23:02:42.004Z,14.68
2022-10-18T23:05:15.724Z,14.63
2022-10-18T23:07:49.485Z,14.69
2022-10-18T23:10:26.806Z,14.54
2022-10-18T23:13:00.357Z,14.45
2022-10-18T23:15:35.153Z,14.40
2022-10-18T23:18:08.809Z,14.36
2022-10-18T23:20:43.191Z,14.41
2022-10-18T23:23:16.666Z,14.41
2022-10-18T23:25:55.130Z,14.23
2022-10-18T23:28:28.789Z,14.18
2022-10-18T23:31:07.141Z,14.15
2022-10-18T23:33:41.527Z,14.12
2022-10-18T23:36:15.455Z,14.10
2022-10-18T23:38:52.582Z,14.10
2022-10-18T23:41:27.785Z,14.06
2022-10-18T23:44:02.522Z,14.02
2022-10-18T23:46:36.088Z,13.98
2022-10-18T23:49:09.575Z,13.92
2022-10-18T23:51:43.074Z,13.86
2022-10-18T23:54:16.553Z,13.81
2022-10-18T23:56:51.519Z,13.76
2022-10-18T23:59:25.006Z,13.74
